Terminal Aerodrome Forecast
Issued by NWS

Home | Current Version | Previous Version | Text Only | Print | Product List | Glossary Off
Versions: 1 2 3 4 5 6 7 8 9 10 11 12 13 14 15 16 17 18

000
FTUS43 KMPX 261600 AAA
TAFRNH
TAF AMD
KRNH 261659Z 2617/2712 04005KT 4SM -SN BKN007 OVC015
      TEMPO 2617/2619 1 1/2SM -SN
     FM262100 33011KT 6SM -SN OVC018
     FM270000 32011KT P6SM BKN025
     FM270300 32009KT P6SM SKC=

USA.gov is the U.S. government's official web portal to all federal, state and local government web resources and services.